Time;durP1;ratioP1;P1;durP2;ratioP2;P2;SDS_P1;SDS_P2;PMS_P1;PMS_P2;Temp;Humidity;BMP_temperature;BMP_pressure;BME280_temperature;BME280_humidity;BME280_pressure;Samples;Min_cycle;Max_cycle;Signal;HPM_P1;HPM_P2
2021/10/15 00:01:49;;;;;;;30.73;16.58;;;;;;;10.95;100.00;100765.69;5029815;28;20419;-83
2021/10/15 00:04:16;;;;;;;25.38;15.45;;;;;;;10.92;100.00;100774.53;5014716;28;20096;-84
2021/10/15 00:06:43;;;;;;;26.80;16.27;;;;;;;11.04;100.00;100767.28;5017141;28;20041;-84
2021/10/15 00:09:10;;;;;;;27.27;18.67;;;;;;;11.05;100.00;100761.94;4999235;28;20048;-87
2021/10/15 00:11:36;;;;;;;29.60;17.30;;;;;;;11.17;100.00;100761.69;5001294;28;20046;-83
2021/10/15 00:14:03;;;;;;;29.67;18.15;;;;;;;11.16;100.00;100757.28;5016035;28;20451;-83
2021/10/15 00:16:30;;;;;;;28.92;18.40;;;;;;;11.14;100.00;100756.47;5006672;28;20442;-86
2021/10/15 00:18:57;;;;;;;27.13;18.17;;;;;;;11.06;100.00;100747.81;5015270;28;20480;-84
2021/10/15 00:21:23;;;;;;;27.70;18.02;;;;;;;11.06;100.00;100745.19;4989698;28;20042;-84
2021/10/15 00:23:50;;;;;;;31.40;18.73;;;;;;;11.05;100.00;100745.22;5012645;28;20041;-84
2021/10/15 00:26:17;;;;;;;30.75;19.30;;;;;;;11.04;100.00;100741.69;5028473;28;20041;-83
2021/10/15 00:28:43;;;;;;;28.55;18.63;;;;;;;11.10;100.00;100738.94;4994239;28;20037;-83
2021/10/15 00:31:10;;;;;;;28.00;20.00;;;;;;;11.11;100.00;100735.38;5000748;28;20804;-82
2021/10/15 00:33:37;;;;;;;32.50;19.67;;;;;;;11.22;100.00;100736.00;5015966;28;21736;-83
2021/10/15 00:36:04;;;;;;;30.08;19.60;;;;;;;11.13;100.00;100730.94;5016844;28;20071;-83
2021/10/15 00:38:30;;;;;;;35.83;21.48;;;;;;;11.19;100.00;100717.59;5012125;28;20052;-84
2021/10/15 00:40:57;;;;;;;34.28;21.33;;;;;;;11.10;100.00;100715.13;5015700;28;20033;-83
2021/10/15 00:43:25;;;;;;;34.08;21.30;;;;;;;11.16;100.00;100716.75;4997779;28;20420;-84
2021/10/15 00:45:52;;;;;;;35.65;22.23;;;;;;;11.13;100.00;100715.06;5016548;28;20045;-83
2021/10/15 00:48:19;;;;;;;36.67;22.05;;;;;;;11.09;100.00;100709.84;5014701;28;20042;-84
2021/10/15 00:50:46;;;;;;;38.92;23.63;;;;;;;11.07;100.00;100707.25;5015730;28;20037;-82
2021/10/15 00:53:13;;;;;;;34.33;22.67;;;;;;;11.12;100.00;100699.25;5013911;28;20061;-82
2021/10/15 00:55:42;;;;;;;38.15;24.30;;;;;;;11.24;100.00;100704.25;5003288;28;20044;-82
2021/10/15 00:58:09;;;;;;;34.92;24.83;;;;;;;11.27;100.00;100704.19;4993941;28;20052;-81
2021/10/15 01:00:35;;;;;;;37.00;24.00;;;;;;;11.15;100.00;100696.50;5013837;28;20030;-82
2021/10/15 01:03:04;;;;;;;37.47;23.90;;;;;;;11.18;100.00;100691.16;5011945;28;20045;-82
2021/10/15 01:05:30;;;;;;;41.17;25.40;;;;;;;11.27;100.00;100691.84;5028732;28;20045;-81
2021/10/15 01:07:57;;;;;;;40.50;25.00;;;;;;;11.26;100.00;100694.50;5005560;28;20552;-83
2021/10/15 01:10:27;;;;;;;40.70;24.63;;;;;;;11.30;100.00;100687.38;4996853;28;20056;-81
2021/10/15 01:12:54;;;;;;;40.75;26.48;;;;;;;11.30;100.00;100688.25;4998566;28;20092;-82
2021/10/15 01:15:21;;;;;;;39.97;25.30;;;;;;;11.24;100.00;100678.66;5016758;28;20091;-82
2021/10/15 01:17:48;;;;;;;48.25;27.75;;;;;;;11.30;100.00;100666.22;5017702;28;20049;-83
2021/10/15 01:20:14;;;;;;;43.15;26.02;;;;;;;11.33;100.00;100674.06;4996023;28;20045;-81
2021/10/15 01:22:41;;;;;;;37.33;25.02;;;;;;;11.30;100.00;100659.16;5006940;28;20037;-81
2021/10/15 01:25:08;;;;;;;44.45;27.40;;;;;;;11.30;100.00;100668.84;5011943;28;20045;-81
2021/10/15 01:27:35;;;;;;;38.45;24.90;;;;;;;11.32;100.00;100648.53;5005666;28;20519;-81
2021/10/15 01:30:02;;;;;;;41.88;27.50;;;;;;;11.33;100.00;100653.78;4995948;28;20044;-80
2021/10/15 01:32:29;;;;;;;41.67;25.77;;;;;;;11.24;100.00;100646.94;5011195;28;20057;-82
2021/10/15 01:34:56;;;;;;;42.92;27.95;;;;;;;11.21;100.00;100641.72;5021560;28;20045;-81
2021/10/15 01:37:22;;;;;;;41.80;27.38;;;;;;;11.31;100.00;100636.22;4992991;28;20057;-83
2021/10/15 01:39:49;;;;;;;44.65;27.67;;;;;;;11.34;100.00;100641.41;5010219;28;20037;-81
2021/10/15 01:45:01;;;;;;;38.88;25.90;;;;;;;11.35;100.00;100630.81;5029015;28;20054;-82
2021/10/15 01:47:27;;;;;;;41.67;27.73;;;;;;;11.35;100.00;100628.19;5025082;28;20095;-81
2021/10/15 01:49:54;;;;;;;40.03;25.92;;;;;;;11.30;100.00;100635.34;5011254;28;20399;-82
2021/10/15 01:52:21;;;;;;;41.63;25.17;;;;;;;11.32;100.00;100627.38;4995743;28;20045;-81
2021/10/15 01:54:48;;;;;;;39.45;25.23;;;;;;;11.35;100.00;100625.53;4995673;28;20137;-80
2021/10/15 01:57:14;;;;;;;40.05;25.17;;;;;;;11.38;100.00;100624.59;5007638;28;20068;-82
2021/10/15 01:59:41;;;;;;;37.63;24.60;;;;;;;11.36;100.00;100614.03;4995668;28;20447;-80
2021/10/15 02:02:08;;;;;;;38.75;24.25;;;;;;;11.40;100.00;100615.69;4997581;28;20050;-82
2021/10/15 02:04:34;;;;;;;38.95;24.70;;;;;;;11.40;100.00;100607.75;4996511;28;20091;-81
2021/10/15 02:07:01;;;;;;;38.50;24.73;;;;;;;11.46;100.00;100598.81;4996863;28;20038;-81
2021/10/15 02:09:28;;;;;;;35.70;24.65;;;;;;;11.46;100.00;100598.81;5011605;28;20122;-80
2021/10/15 02:11:55;;;;;;;39.33;24.40;;;;;;;11.38;100.00;100590.19;5013676;28;20128;-80
2021/10/15 02:14:21;;;;;;;36.13;24.90;;;;;;;11.46;100.00;100591.75;4995267;28;20052;-81
2021/10/15 02:16:48;;;;;;;34.83;24.50;;;;;;;11.41;100.00;100593.63;5026527;28;20132;-80
2021/10/15 02:19:15;;;;;;;33.22;22.50;;;;;;;11.32;100.00;100585.91;4994723;28;20041;-80
2021/10/15 02:21:41;;;;;;;33.03;22.60;;;;;;;11.37;100.00;100586.69;5011964;28;20052;-83
2021/10/15 02:24:08;;;;;;;33.72;22.40;;;;;;;11.33;100.00;100577.06;4993264;28;20412;-81
2021/10/15 02:26:35;;;;;;;32.88;22.90;;;;;;;11.44;100.00;100574.19;5019765;28;20060;-81
2021/10/15 02:29:03;;;;;;;33.90;22.42;;;;;;;11.38;100.00;100569.91;5011532;28;20681;-81
2021/10/15 02:31:30;;;;;;;32.20;21.88;;;;;;;11.32;100.00;100571.81;5011360;28;20516;-81
2021/10/15 02:33:57;;;;;;;32.85;21.92;;;;;;;11.44;100.00;100572.41;5017385;28;20037;-80
2021/10/15 02:36:23;;;;;;;30.77;20.23;;;;;;;11.43;100.00;100560.06;5014155;28;20042;-80
2021/10/15 02:38:50;;;;;;;29.23;19.98;;;;;;;11.41;100.00;100555.72;5024045;28;20041;-81
2021/10/15 02:41:17;;;;;;;30.10;19.67;;;;;;;11.42;100.00;100546.88;5026666;28;20037;-81
2021/10/15 02:43:44;;;;;;;29.73;19.00;;;;;;;11.40;100.00;100551.34;5005041;28;20041;-81
2021/10/15 02:46:14;;;;;;;28.77;19.70;;;;;;;11.33;100.00;100536.53;4996111;28;20049;-81
2021/10/15 02:48:42;;;;;;;28.75;17.65;;;;;;;11.40;100.00;100546.91;5026634;28;20042;-82
2021/10/15 02:51:09;;;;;;;30.13;18.90;;;;;;;11.39;100.00;100545.19;4995369;28;20092;-80
2021/10/15 02:53:38;;;;;;;29.48;20.00;;;;;;;11.42;100.00;100531.00;5022567;28;20045;-80
2021/10/15 02:56:08;;;;;;;26.45;18.23;;;;;;;11.42;100.00;100545.09;5015329;28;20037;-81
2021/10/15 02:58:39;;;;;;;27.73;18.63;;;;;;;11.34;100.00;100531.19;5020020;28;20049;-82
2021/10/15 03:01:08;;;;;;;24.90;17.77;;;;;;;11.37;100.00;100524.97;4996180;28;20121;-80
2021/10/15 03:03:35;;;;;;;26.58;17.45;;;;;;;11.35;100.00;100529.41;5010004;28;20057;-81
2021/10/15 03:06:02;;;;;;;23.90;16.80;;;;;;;11.36;100.00;100517.97;5017880;28;20555;-81
2021/10/15 03:08:29;;;;;;;24.08;15.75;;;;;;;11.30;100.00;100515.47;5021702;28;20041;-83
2021/10/15 03:10:55;;;;;;;24.35;16.58;;;;;;;11.32;100.00;100518.94;5000773;28;20042;-82
2021/10/15 03:13:22;;;;;;;21.75;15.40;;;;;;;11.22;100.00;100511.22;5024641;28;20048;-82
2021/10/15 03:15:49;;;;;;;19.90;14.85;;;;;;;11.28;100.00;100516.38;5029274;28;20043;-82
2021/10/15 03:18:15;;;;;;;22.90;15.48;;;;;;;11.32;100.00;100508.34;5024738;28;20495;-81
2021/10/15 03:20:44;;;;;;;21.98;15.55;;;;;;;11.25;100.00;100510.28;5005731;28;20033;-82
2021/10/15 03:23:11;;;;;;;19.20;14.02;;;;;;;11.31;100.00;100503.97;5000797;28;20052;-82
2021/10/15 03:25:38;;;;;;;20.35;14.27;;;;;;;11.22;100.00;100495.38;4995555;28;20049;-82
2021/10/15 03:28:05;;;;;;;21.80;15.75;;;;;;;11.32;100.00;100500.41;4994605;28;20049;-81
2021/10/15 03:30:33;;;;;;;20.20;14.43;;;;;;;11.33;100.00;100499.50;4992007;28;20136;-82
2021/10/15 03:33:00;;;;;;;20.15;14.75;;;;;;;11.36;100.00;100495.03;5020597;28;20048;-82
2021/10/15 03:35:27;;;;;;;18.25;13.90;;;;;;;11.32;100.00;100503.06;5030385;28;20048;-83
2021/10/15 03:37:54;;;;;;;20.67;13.57;;;;;;;11.39;100.00;100494.06;5010424;28;20052;-82
2021/10/15 03:40:20;;;;;;;20.25;14.52;;;;;;;11.33;100.00;100497.72;5027443;28;20038;-81
2021/10/15 03:42:47;;;;;;;19.02;12.95;;;;;;;11.34;100.00;100486.22;4994741;28;20469;-82
2021/10/15 03:45:14;;;;;;;19.83;13.10;;;;;;;11.32;100.00;100492.47;5011138;28;20511;-81
2021/10/15 03:47:41;;;;;;;21.65;13.52;;;;;;;11.40;100.00;100482.56;5014341;28;20091;-81
2021/10/15 03:50:08;;;;;;;18.90;12.07;;;;;;;11.37;100.00;100487.94;5000028;28;20045;-80
2021/10/15 03:52:36;;;;;;;17.02;12.95;;;;;;;11.35;100.00;100471.22;5014438;28;20049;-80
2021/10/15 03:55:05;;;;;;;17.35;11.57;;;;;;;11.30;100.00;100465.22;4990108;28;20049;-80
2021/10/15 03:57:31;;;;;;;17.58;11.55;;;;;;;11.28;100.00;100471.41;5005343;28;20068;-81
2021/10/15 03:59:58;;;;;;;17.40;11.82;;;;;;;11.33;100.00;100473.91;5010643;28;20033;-83
2021/10/15 04:02:25;;;;;;;17.30;13.85;;;;;;;11.36;100.00;100462.41;5032388;28;20100;-82
2021/10/15 04:04:52;;;;;;;18.00;12.48;;;;;;;11.38;100.00;100464.09;5039135;22;20060;-80
2021/10/15 04:07:19;;;;;;;16.40;11.88;;;;;;;11.40;100.00;100453.47;5020575;28;20083;-80
2021/10/15 04:09:46;;;;;;;17.33;12.23;;;;;;;11.31;100.00;100449.31;5042130;28;20499;-80
2021/10/15 04:12:13;;;;;;;16.65;11.00;;;;;;;11.33;100.00;100455.41;5033001;28;20038;-80
2021/10/15 04:14:40;;;;;;;16.00;11.10;;;;;;;11.35;100.00;100453.63;5030094;28;20038;-80
2021/10/15 04:17:06;;;;;;;14.10;10.85;;;;;;;11.34;100.00;100441.28;5023630;28;20048;-80
2021/10/15 04:19:33;;;;;;;16.73;11.18;;;;;;;11.39;100.00;100442.03;5031576;28;20053;-80
2021/10/15 04:22:00;;;;;;;14.15;10.82;;;;;;;11.31;100.00;100440.50;5015889;28;20041;-80
2021/10/15 04:24:26;;;;;;;15.50;10.18;;;;;;;11.33;100.00;100441.31;4999722;28;20146;-79
2021/10/15 04:26:53;;;;;;;15.38;11.23;;;;;;;11.38;100.00;100432.34;5018243;28;20037;-79
2021/10/15 04:29:20;;;;;;;13.98;9.95;;;;;;;11.34;100.00;100435.13;5029818;28;20488;-80
2021/10/15 04:31:47;;;;;;;13.85;10.07;;;;;;;11.36;100.00;100434.19;4995289;28;20075;-83
2021/10/15 04:34:13;;;;;;;14.25;10.13;;;;;;;11.38;100.00;100436.78;5010692;28;20419;-83
2021/10/15 04:36:40;;;;;;;14.27;11.02;;;;;;;11.41;100.00;100426.97;5011243;28;20141;-81
2021/10/15 04:39:07;;;;;;;13.35;9.93;;;;;;;11.45;100.00;100415.41;4993371;28;20535;-81
2021/10/15 04:41:33;;;;;;;15.30;9.90;;;;;;;11.42;100.00;100415.47;5015663;28;20040;-81
2021/10/15 04:44:00;;;;;;;14.88;9.70;;;;;;;11.40;100.00;100404.06;4992047;28;20508;-81
2021/10/15 04:46:27;;;;;;;13.48;9.23;;;;;;;11.40;100.00;100403.22;5010893;28;20124;-82
2021/10/15 04:48:54;;;;;;;11.20;9.05;;;;;;;11.35;100.00;100405.09;4990865;28;20061;-82
2021/10/15 04:51:21;;;;;;;15.05;8.77;;;;;;;11.33;100.00;100405.16;5013902;28;20504;-82
2021/10/15 04:53:49;;;;;;;12.98;8.93;;;;;;;11.39;100.00;100393.53;4997657;28;20195;-81
2021/10/15 04:56:18;;;;;;;13.10;9.52;;;;;;;11.34;100.00;100388.38;5015122;28;20054;-83
2021/10/15 04:58:44;;;;;;;14.10;9.38;;;;;;;11.42;100.00;100389.03;4995159;28;20050;-82
2021/10/15 05:01:11;;;;;;;11.82;8.15;;;;;;;11.36;100.00;100386.56;5040216;28;20621;-83
2021/10/15 05:03:38;;;;;;;10.75;8.48;;;;;;;11.32;100.00;100397.28;4998460;28;20046;-82
2021/10/15 05:06:05;;;;;;;12.13;8.95;;;;;;;11.41;100.00;100378.50;5014999;28;20048;-81
2021/10/15 05:08:38;;;;;;;11.65;8.27;;;;;;;11.45;100.00;100390.75;5013295;28;20060;-81
2021/10/15 05:11:05;;;;;;;12.70;8.50;;;;;;;11.40;100.00;100374.97;5030366;28;20036;-82
2021/10/15 05:13:32;;;;;;;9.93;7.80;;;;;;;11.41;100.00;100378.50;5027639;28;20111;-81
2021/10/15 05:15:58;;;;;;;11.98;8.23;;;;;;;11.39;100.00;100361.81;5032413;28;20095;-81
2021/10/15 05:18:25;;;;;;;13.65;9.43;;;;;;;11.41;100.00;100363.50;5034921;28;20046;-81
2021/10/15 05:20:52;;;;;;;10.20;7.90;;;;;;;11.37;100.00;100361.84;5010186;28;20030;-81
2021/10/15 05:23:19;;;;;;;10.13;7.82;;;;;;;11.33;100.00;100354.03;5012626;28;20042;-81
2021/10/15 05:25:45;;;;;;;11.57;7.07;;;;;;;11.34;100.00;100358.41;5014473;28;20096;-83
2021/10/15 05:28:12;;;;;;;11.45;9.23;;;;;;;11.35;100.00;100352.22;5023498;28;20069;-81
2021/10/15 05:30:39;;;;;;;11.85;8.48;;;;;;;11.37;100.00;100346.00;5014443;28;20052;-82
2021/10/15 05:33:07;;;;;;;11.35;7.93;;;;;;;11.37;100.00;100350.41;5027338;28;20038;-80
2021/10/15 05:35:33;;;;;;;13.43;7.38;;;;;;;11.28;100.00;100335.69;5028985;28;20103;-81
2021/10/15 05:38:00;;;;;;;12.68;7.70;;;;;;;11.31;100.00;100337.34;5037366;28;20048;-82
2021/10/15 05:40:27;;;;;;;12.02;9.15;;;;;;;11.36;100.00;100343.41;5014313;28;20653;-81
2021/10/15 05:42:53;;;;;;;10.68;7.78;;;;;;;11.29;100.00;100347.97;5014388;28;20087;-82
2021/10/15 05:45:20;;;;;;;15.10;7.50;;;;;;;11.30;100.00;100339.13;4996954;28;20068;-82
2021/10/15 05:47:47;;;;;;;9.70;7.05;;;;;;;11.26;100.00;100329.53;5012322;28;20041;-83
2021/10/15 05:50:14;;;;;;;10.93;7.95;;;;;;;11.33;100.00;100322.31;5023666;28;20107;-83
2021/10/15 05:52:49;;;;;;;9.45;7.13;;;;;;;11.35;100.00;100331.06;4999708;28;20044;-82
2021/10/15 06:00:26;;;;;;;11.10;7.22;;;;;;;11.33;100.00;100327.59;5018934;28;20083;-84
2021/10/15 06:02:54;;;;;;;12.13;7.85;;;;;;;11.33;100.00;100327.59;5019058;28;20056;-82
2021/10/15 06:16:21;;;;;;;10.90;7.10;;;;;;;11.34;100.00;100314.31;5019478;28;20056;-81
2021/10/15 06:18:53;;;;;;;9.85;7.30;;;;;;;11.38;100.00;100313.34;5030822;28;20346;-81
2021/10/15 06:21:20;;;;;;;8.05;6.40;;;;;;;11.39;100.00;100300.97;5012175;28;20312;-82
2021/10/15 06:23:47;;;;;;;10.75;7.47;;;;;;;11.39;100.00;100311.56;5044088;28;20052;-82
2021/10/15 06:26:14;;;;;;;11.05;6.85;;;;;;;11.42;100.00;100295.59;4999582;28;20602;-81
2021/10/15 06:28:40;;;;;;;10.60;7.05;;;;;;;11.41;100.00;100293.84;5010929;28;20041;-81
2021/10/15 06:31:07;;;;;;;25.27;19.48;;;;;;;11.39;100.00;100296.53;4999273;28;20045;-80
2021/10/15 06:33:34;;;;;;;20.83;12.52;;;;;;;11.48;100.00;100308.63;5023467;28;21165;-81
2021/10/15 06:36:01;;;;;;;20.60;15.98;;;;;;;11.51;98.52;100295.31;5014054;28;20128;-80
2021/10/15 06:38:28;;;;;;;10.57;6.78;;;;;;;11.44;100.00;100299.06;5013652;28;20045;-80
2021/10/15 06:40:55;;;;;;;9.88;7.82;;;;;;;11.47;99.71;100291.91;5014569;28;20099;-80
2021/10/15 06:43:24;;;;;;;10.82;7.70;;;;;;;11.56;99.40;100294.25;5001812;28;20069;-80
2021/10/15 06:45:52;;;;;;;10.88;7.05;;;;;;;11.59;98.54;100298.59;5029068;28;20041;-80
2021/10/15 06:48:19;;;;;;;11.27;8.23;;;;;;;11.64;97.91;100294.03;5008967;28;20041;-80
2021/10/15 06:50:46;;;;;;;10.80;7.35;;;;;;;11.59;97.26;100293.28;5032780;28;20566;-80
2021/10/15 06:53:13;;;;;;;11.48;6.80;;;;;;;11.63;98.23;100288.78;5031211;28;20447;-81
2021/10/15 06:55:40;;;;;;;11.02;6.75;;;;;;;11.65;98.57;100289.59;5017878;28;20049;-81
2021/10/15 06:58:07;;;;;;;10.13;7.55;;;;;;;11.76;96.83;100284.84;5028220;28;20138;-81
2021/10/15 07:00:33;;;;;;;10.88;7.00;;;;;;;11.67;96.17;100285.97;5009545;28;20039;-80
2021/10/15 07:03:01;;;;;;;9.93;7.28;;;;;;;11.79;97.02;100279.47;5014482;28;20471;-80
2021/10/15 07:05:28;;;;;;;13.15;6.72;;;;;;;11.74;98.04;100276.94;4998734;28;20037;-80
2021/10/15 07:07:55;;;;;;;10.43;6.47;;;;;;;11.74;97.32;100274.31;5028552;28;20041;-81
2021/10/15 07:10:23;;;;;;;8.80;6.10;;;;;;;11.79;98.25;100263.59;5016547;28;20057;-81
2021/10/15 07:12:50;;;;;;;7.38;6.05;;;;;;;11.89;96.63;100269.47;4994128;28;20144;-81
2021/10/15 07:15:17;;;;;;;10.05;6.55;;;;;;;11.93;94.28;100269.31;4998330;28;20080;-80
2021/10/15 07:17:44;;;;;;;8.70;5.65;;;;;;;12.01;95.13;100280.53;5033424;28;20041;-81
2021/10/15 07:20:11;;;;;;;7.72;5.53;;;;;;;12.07;95.75;100279.47;5032676;28;20045;-80
2021/10/15 07:22:38;;;;;;;8.70;6.68;;;;;;;12.09;96.53;100264.38;5029508;28;20042;-81
2021/10/15 07:25:06;;;;;;;10.07;5.88;;;;;;;12.13;95.74;100265.19;5018802;28;20245;-80
2021/10/15 07:27:34;;;;;;;8.07;6.43;;;;;;;12.11;95.72;100268.75;5015810;28;20111;-80
2021/10/15 07:30:06;;;;;;;9.13;6.50;;;;;;;12.00;94.24;100262.91;5025711;28;20095;-80
2021/10/15 07:32:34;;;;;;;8.77;5.72;;;;;;;12.08;94.77;100263.53;4990685;28;20140;-80
2021/10/15 07:35:02;;;;;;;10.65;6.80;;;;;;;12.10;95.11;100255.53;5028773;28;20132;-81
2021/10/15 07:37:29;;;;;;;10.63;6.10;;;;;;;12.08;96.05;100260.88;5014864;28;20038;-80
2021/10/15 07:39:56;;;;;;;9.15;6.32;;;;;;;12.06;95.02;100268.00;5027955;28;20049;-80
2021/10/15 07:42:24;;;;;;;7.85;5.43;;;;;;;12.10;96.11;100260.81;5038182;23;20048;-81
2021/10/15 07:44:51;;;;;;;8.68;5.97;;;;;;;12.09;96.18;100251.16;5047820;28;20036;-81
2021/10/15 07:47:17;;;;;;;7.05;5.35;;;;;;;12.15;95.13;100263.34;5047608;28;20514;-80
2021/10/15 07:49:44;;;;;;;7.35;5.78;;;;;;;12.15;95.75;100250.97;5043749;28;20047;-80
2021/10/15 07:52:10;;;;;;;10.35;6.10;;;;;;;12.21;94.50;100256.06;5010705;28;20046;-80
2021/10/15 07:54:37;;;;;;;7.15;5.95;;;;;;;12.27;94.46;100253.19;5027736;28;20091;-80
2021/10/15 07:57:05;;;;;;;7.55;5.30;;;;;;;12.20;94.18;100267.56;5012801;28;20114;-81
2021/10/15 07:59:32;;;;;;;9.10;5.53;;;;;;;12.27;96.26;100266.41;5013610;28;20045;-79
2021/10/15 08:01:59;;;;;;;7.72;5.75;;;;;;;12.34;94.67;100273.25;5013745;28;20044;-80
2021/10/15 08:04:27;;;;;;;9.98;4.43;;;;;;;12.46;92.69;100265.81;5025324;28;20156;-81
2021/10/15 08:06:53;;;;;;;8.25;5.80;;;;;;;12.46;94.21;100261.38;5013743;28;20504;-81
2021/10/15 08:09:20;;;;;;;7.82;5.28;;;;;;;12.43;94.34;100272.06;5015317;28;20068;-81
2021/10/15 08:11:48;;;;;;;7.07;5.45;;;;;;;12.51;92.83;100263.84;4999477;28;20033;-81
2021/10/15 08:14:14;;;;;;;10.65;5.60;;;;;;;12.52;90.05;100268.22;5024545;28;20052;-80
2021/10/15 08:16:41;;;;;;;8.57;4.90;;;;;;;12.48;93.25;100269.28;5029012;28;20228;-80
2021/10/15 08:19:25;;;;;;;9.25;6.00;;;;;;;12.50;92.11;100273.59;5029881;28;20526;-81
2021/10/15 08:21:56;;;;;;;6.38;5.03;;;;;;;12.50;91.48;100265.63;5011456;28;20046;-81
2021/10/15 08:24:24;;;;;;;8.07;5.03;;;;;;;12.40;94.45;100265.09;5033230;28;20041;-80
2021/10/15 08:26:51;;;;;;;7.80;4.85;;;;;;;12.50;92.29;100264.78;5035426;28;20041;-81
2021/10/15 08:29:18;;;;;;;6.15;4.60;;;;;;;12.54;91.00;100274.38;5015846;28;20407;-82
2021/10/15 08:31:45;;;;;;;7.32;4.85;;;;;;;12.55;90.40;100265.50;5032783;28;20120;-81
2021/10/15 08:34:13;;;;;;;7.20;4.25;;;;;;;12.49;91.06;100276.31;5038478;28;20041;-80
2021/10/15 08:36:39;;;;;;;7.43;4.88;;;;;;;12.39;92.60;100266.03;5034706;28;20412;-81
2021/10/15 08:39:06;;;;;;;7.47;5.20;;;;;;;12.36;92.04;100263.50;5016029;28;20040;-81
2021/10/15 08:41:35;;;;;;;6.82;4.20;;;;;;;12.36;92.56;100260.84;5032353;28;20045;-80
2021/10/15 08:44:02;;;;;;;7.85;3.47;;;;;;;12.39;91.39;100259.84;5015184;28;20045;-80
2021/10/15 08:46:30;;;;;;;6.03;4.03;;;;;;;12.35;91.63;100261.72;5033388;28;20042;-81
2021/10/15 08:48:57;;;;;;;5.43;3.50;;;;;;;12.35;91.41;100261.72;5034337;28;20052;-81
2021/10/15 08:51:24;;;;;;;5.05;4.10;;;;;;;12.33;92.56;100258.28;5032835;28;20033;-80
2021/10/15 08:53:58;;;;;;;5.32;4.10;;;;;;;12.40;91.12;100254.50;5020972;28;20095;-80
2021/10/15 08:56:30;;;;;;;8.27;4.28;;;;;;;12.45;89.86;100251.72;5041624;28;20068;-81
2021/10/15 08:58:59;;;;;;;6.60;4.20;;;;;;;12.39;90.52;100254.56;5026168;28;20048;-81
2021/10/15 09:01:28;;;;;;;6.03;4.25;;;;;;;12.42;89.96;100259.75;5017218;28;20099;-80
2021/10/15 09:04:02;;;;;;;5.65;4.35;;;;;;;12.51;89.58;100253.25;5015164;28;20105;-80
2021/10/15 09:06:38;;;;;;;;;;;;;;;12.50;89.56;100252.41;5033386;28;20045;-79
2021/10/15 09:09:06;;;;;;;4.65;3.58;;;;;;;12.62;88.32;100240.53;5014968;28;19921;-81
2021/10/15 09:11:34;;;;;;;4.57;3.60;;;;;;;12.70;88.77;100250.84;5016934;28;20041;-79
2021/10/15 09:14:24;;;;;;;5.43;3.70;;;;;;;12.78;86.99;100254.06;5043183;28;20045;-79
2021/10/15 09:17:01;;;;;;;4.97;3.13;;;;;;;12.85;87.63;100243.19;5033223;28;20049;-79
2021/10/15 09:19:28;;;;;;;5.13;3.25;;;;;;;12.92;86.57;100244.69;5031231;28;20099;-79
2021/10/15 09:22:07;;;;;;;6.80;3.40;;;;;;;13.00;84.88;100231.16;5016613;28;20037;-79
2021/10/15 09:24:54;;;;;;;4.13;3.10;;;;;;;13.13;85.86;100228.91;5031951;28;20521;-78
2021/10/15 09:27:29;;;;;;;4.65;3.30;;;;;;;13.23;83.31;100214.41;5032131;28;20044;-78
2021/10/15 09:30:13;;;;;;;5.25;3.80;;;;;;;13.28;83.01;100212.44;5027682;28;20444;-79
2021/10/15 09:32:45;;;;;;;5.18;3.08;;;;;;;13.32;82.96;100221.16;5040512;28;20048;-78
2021/10/15 09:35:14;;;;;;;4.70;2.80;;;;;;;13.43;84.38;100219.81;5031476;28;20392;-79
2021/10/15 09:37:43;;;;;;;4.60;2.88;;;;;;;13.46;81.97;100224.16;4996658;28;20038;-78
2021/10/15 09:40:14;;;;;;;5.70;3.55;;;;;;;13.52;83.34;100224.75;5037268;28;20049;-77
2021/10/15 09:42:43;;;;;;;4.40;3.25;;;;;;;13.51;80.45;100223.00;5030690;28;20030;-78
2021/10/15 09:45:19;;;;;;;5.65;3.28;;;;;;;13.34;80.65;100225.47;5033269;28;20412;-78
2021/10/15 09:47:48;;;;;;;4.38;3.30;;;;;;;13.25;80.91;100225.81;5022435;28;20805;-78
2021/10/15 09:50:17;;;;;;;4.78;3.22;;;;;;;13.17;80.68;100227.88;5045820;28;20034;-78
2021/10/15 09:52:46;;;;;;;4.95;3.00;;;;;;;13.15;81.93;100235.03;5037211;28;20095;-79
2021/10/15 09:55:14;;;;;;;5.20;2.90;;;;;;;13.16;83.34;100234.97;4998068;28;20048;-78
2021/10/15 09:57:44;;;;;;;4.65;3.30;;;;;;;13.05;82.58;100231.88;5033814;28;20041;-77
2021/10/15 10:00:13;;;;;;;7.82;4.30;;;;;;;13.04;84.57;100239.88;5028037;28;20041;-78
2021/10/15 10:02:40;;;;;;;5.20;3.47;;;;;;;12.99;82.26;100231.22;5048161;28;20451;-79
2021/10/15 10:05:12;;;;;;;4.13;3.38;;;;;;;12.94;83.14;100237.53;5046213;28;20101;-78
2021/10/15 10:07:40;;;;;;;5.57;3.90;;;;;;;12.91;83.87;100240.31;5045453;28;20042;-80
2021/10/15 10:10:09;;;;;;;6.20;3.22;;;;;;;12.88;83.16;100240.44;5013448;28;20052;-81
2021/10/15 10:12:37;;;;;;;4.88;3.53;;;;;;;12.81;84.16;100241.56;5032187;28;20443;-78
2021/10/15 10:15:06;;;;;;;4.47;3.42;;;;;;;12.71;85.22;100249.94;5032815;28;20064;-79
2021/10/15 10:17:38;;;;;;;4.03;3.17;;;;;;;12.69;86.38;100260.56;5016928;28;20747;-81
2021/10/15 10:20:12;;;;;;;5.13;3.30;;;;;;;12.58;90.44;100250.34;5013588;28;20431;-77
2021/10/15 10:23:05;;;;;;;5.45;4.18;;;;;;;12.45;94.00;100262.31;5001621;28;20048;-79
2021/10/15 10:25:34;;;;;;;5.18;3.63;;;;;;;12.44;97.10;100268.50;5031711;28;20304;-78
2021/10/15 10:28:19;;;;;;;6.13;4.10;;;;;;;12.26;96.63;100261.19;4996780;28;20049;-80
2021/10/15 10:30:52;;;;;;;6.20;3.60;;;;;;;12.22;100.00;100273.66;4998393;28;20041;-80
2021/10/15 10:33:23;;;;;;;5.13;3.92;;;;;;;12.22;100.00;100272.81;5011975;28;20045;-78
2021/10/15 10:35:51;;;;;;;6.53;5.18;;;;;;;12.12;100.00;100272.25;4984677;28;20115;-80
2021/10/15 10:38:20;;;;;;;16.25;14.07;;;;;;;12.03;100.00;100285.78;5012163;28;20148;-81
2021/10/15 10:41:00;;;;;;;5.18;4.05;;;;;;;11.98;100.00;100283.28;5028511;28;20045;-81
2021/10/15 10:43:31;;;;;;;7.47;4.05;;;;;;;11.88;100.00;100284.50;5026011;28;20049;-77
2021/10/15 10:46:21;;;;;;;4.80;3.33;;;;;;;11.87;100.00;100276.63;5013888;28;20053;-77
2021/10/15 10:48:51;;;;;;;5.93;5.30;;;;;;;11.82;100.00;100274.97;5013242;28;20050;-80
2021/10/15 10:51:19;;;;;;;5.97;4.60;;;;;;;11.86;100.00;100286.34;5012135;28;20072;-80
2021/10/15 10:54:08;;;;;;;7.75;4.15;;;;;;;11.80;100.00;100290.03;5033101;28;20045;-81
2021/10/15 10:56:38;;;;;;;7.30;4.30;;;;;;;11.74;100.00;100292.81;5021455;28;20126;-80
2021/10/15 10:59:21;;;;;;;6.28;4.03;;;;;;;11.78;100.00;100296.25;5014317;28;20131;-79
2021/10/15 11:01:50;;;;;;;6.88;4.80;;;;;;;11.72;100.00;100293.78;5026828;28;20041;-80
2021/10/15 11:04:37;;;;;;;6.55;4.82;;;;;;;11.65;100.00;100310.78;5013280;28;20041;-79
2021/10/15 11:07:21;;;;;;;6.78;4.40;;;;;;;11.61;100.00;100302.06;5023578;28;20067;-81
2021/10/15 11:09:52;;;;;;;8.00;4.80;;;;;;;11.56;100.00;100319.84;5016111;28;20049;-82
2021/10/15 11:12:22;;;;;;;7.15;5.10;;;;;;;11.55;100.00;100313.69;5017017;28;20511;-78
2021/10/15 11:14:54;;;;;;;7.05;4.30;;;;;;;11.54;100.00;100324.34;5038277;28;20053;-81
2021/10/15 11:17:35;;;;;;;5.78;4.45;;;;;;;11.47;100.00;100330.72;5033328;28;20491;-78
2021/10/15 11:20:08;;;;;;;6.97;3.30;;;;;;;11.49;100.00;100327.09;5047863;28;20049;-81
2021/10/15 11:22:35;;;;;;;6.90;5.03;;;;;;;11.53;100.00;100341.13;5043421;28;20050;-80
2021/10/15 11:25:03;;;;;;;4.47;3.50;;;;;;;11.45;100.00;100359.84;5027141;28;20053;-80
2021/10/15 11:27:30;;;;;;;8.13;5.72;;;;;;;11.41;100.00;100357.34;5007804;28;20038;-78
2021/10/15 11:29:58;;;;;;;3.95;3.17;;;;;;;11.40;100.00;100358.25;4993695;28;20760;-80
2021/10/15 11:32:37;;;;;;;3.83;3.42;;;;;;;11.35;100.00;100365.44;5012576;28;20038;-79
2021/10/15 11:35:10;;;;;;;3.95;2.90;;;;;;;11.39;100.00;100364.44;4994468;28;20045;-82
2021/10/15 11:38:06;;;;;;;3.58;3.00;;;;;;;11.32;100.00;100362.88;5043567;28;20037;-79